Time;durP1;ratioP1;P1;durP2;ratioP2;P2;SDS_P1;SDS_P2;PMS_P1;PMS_P2;Temp;Humidity;BMP_temperature;BMP_pressure;BME280_temperature;BME280_humidity;BME280_pressure;Samples;Min_cycle;Max_cycle;Signal;HPM_P1;HPM_P2
2021/01/28 00:01:44;;;;;;;9.33;5.50;;;;;;;3.10;92.79;100130.69;122777;1112;65007;-78
2021/01/28 00:04:11;;;;;;;10.07;5.03;;;;;;;3.09;92.65;100142.16;122718;1112;66606;-76
2021/01/28 00:06:38;;;;;;;10.63;5.77;;;;;;;3.09;92.90;100134.30;122811;1109;64943;-78
2021/01/28 00:09:05;;;;;;;13.37;6.63;;;;;;;3.09;93.16;100129.05;122789;1112;64951;-76
2021/01/28 00:11:33;;;;;;;9.00;4.50;;;;;;;3.10;93.86;100133.31;124377;1110;65099;-78
2021/01/28 00:13:59;;;;;;;10.60;4.95;;;;;;;3.11;93.35;100132.36;122742;1109;65010;-75
2021/01/28 00:16:25;;;;;;;10.90;6.20;;;;;;;3.15;93.34;100135.53;122681;1111;64934;-74
2021/01/28 00:18:52;;;;;;;10.93;6.63;;;;;;;3.17;92.94;100126.56;122746;1109;65010;-75
2021/01/28 00:21:18;;;;;;;10.97;6.00;;;;;;;3.21;92.90;100124.46;122695;1109;64942;-77
2021/01/28 00:23:45;;;;;;;8.40;5.00;;;;;;;3.24;92.57;100122.39;122736;1112;64921;-75
2021/01/28 00:26:11;;;;;;;8.90;3.93;;;;;;;3.26;92.77;100125.70;122971;1112;66245;-75
2021/01/28 00:28:37;;;;;;;11.63;6.30;;;;;;;3.31;93.28;100116.59;122713;1109;63762;-75
2021/01/28 00:31:03;;;;;;;9.40;5.40;;;;;;;3.33;93.05;100114.66;122776;1109;65513;-77
2021/01/28 00:33:30;;;;;;;12.93;6.47;;;;;;;3.35;93.23;100117.95;122679;1111;64946;-76
2021/01/28 00:35:58;;;;;;;10.50;5.67;;;;;;;3.37;93.09;100121.27;122674;1109;64930;-76
2021/01/28 00:38:30;;;;;;;14.03;6.20;;;;;;;3.38;93.46;100107.17;122897;1109;64959;-75
2021/01/28 00:40:58;;;;;;;13.20;6.53;;;;;;;3.40;93.47;100113.10;122765;1112;64999;-77
2021/01/28 00:43:25;;;;;;;10.60;4.90;;;;;;;3.42;92.90;100113.78;122704;1112;65068;-75
2021/01/28 00:45:52;;;;;;;10.13;5.03;;;;;;;3.41;92.69;100106.91;122764;1112;65081;-75
2021/01/28 00:48:20;;;;;;;7.00;3.30;;;;;;;3.41;92.63;100120.02;123038;1112;64889;-75
2021/01/28 00:50:47;;;;;;;11.27;5.80;;;;;;;3.44;92.70;100119.72;122862;1112;65072;-75
2021/01/28 00:53:15;;;;;;;13.90;4.73;;;;;;;3.44;92.50;100111.84;122725;1112;64947;-77
2021/01/28 00:55:42;;;;;;;12.87;6.30;;;;;;;3.44;93.39;100107.45;122868;1112;64956;-74
2021/01/28 00:58:09;;;;;;;13.23;6.10;;;;;;;3.44;93.44;100106.61;122751;1112;66123;-78
2021/01/28 01:00:41;;;;;;;12.57;6.20;;;;;;;3.45;93.19;100100.41;122876;1109;64921;-77
2021/01/28 01:03:11;;;;;;;16.07;8.77;;;;;;;3.48;93.12;100097.48;122830;1112;65228;-76
2021/01/28 01:05:39;;;;;;;15.43;6.83;;;;;;;3.52;93.85;100101.47;122881;1111;64905;-75
2021/01/28 01:08:10;;;;;;;9.60;5.83;;;;;;;3.54;93.80;100098.72;122678;1109;65056;-75
2021/01/28 01:10:41;;;;;;;14.67;7.40;;;;;;;3.56;93.86;100104.64;122830;1109;65231;-76
2021/01/28 01:13:10;;;;;;;13.00;7.13;;;;;;;3.59;93.61;100104.34;122747;1109;65010;-75
2021/01/28 01:15:38;;;;;;;12.23;5.03;;;;;;;3.61;93.21;100108.50;122849;1112;64920;-73
2021/01/28 01:18:06;;;;;;;15.50;8.30;;;;;;;3.66;94.33;100101.01;122781;1112;65460;-76
2021/01/28 01:20:33;;;;;;;17.03;9.43;;;;;;;3.70;94.00;100100.70;122822;1112;65074;-75
2021/01/28 01:22:59;;;;;;;18.80;8.40;;;;;;;3.73;93.45;100097.81;122782;1110;64997;-75
2021/01/28 01:25:26;;;;;;;13.05;5.80;;;;;;;3.76;93.55;100097.50;122729;1112;65001;-74
2021/01/28 01:27:52;;;;;;;10.23;5.17;;;;;;;3.79;93.81;100094.61;122804;1112;66174;-77
2021/01/28 01:30:21;;;;;;;12.37;6.17;;;;;;;3.83;93.64;100095.97;122746;1110;64978;-75
2021/01/28 01:32:48;;;;;;;19.27;9.50;;;;;;;3.88;94.06;100097.16;122855;1109;66212;-74
2021/01/28 01:35:18;;;;;;;13.60;6.00;;;;;;;3.92;93.66;100097.70;123211;1109;64975;-74
2021/01/28 01:37:45;;;;;;;14.57;7.50;;;;;;;3.96;93.46;100098.25;123030;1109;64788;-77
2021/01/28 01:40:27;;;;;;;15.10;5.87;;;;;;;3.98;93.73;100098.93;122762;1112;64881;-75
2021/01/28 01:42:53;;;;;;;12.37;6.80;;;;;;;4.02;93.56;100098.48;122779;1112;65503;-77
2021/01/28 01:45:33;;;;;;;16.03;8.73;;;;;;;4.04;93.52;100099.16;123191;1112;64962;-77
2021/01/28 01:48:08;;;;;;;13.27;6.10;;;;;;;4.07;93.27;100093.61;122854;1112;66159;-77
2021/01/28 01:51:01;;;;;;;19.43;8.70;;;;;;;4.09;93.46;100102.16;122815;1110;64946;-76
2021/01/28 01:53:34;;;;;;;13.27;5.90;;;;;;;4.10;93.10;100092.48;122776;1111;65472;-77
2021/01/28 01:56:07;;;;;;;14.67;8.03;;;;;;;4.13;92.62;100091.38;122707;1110;64917;-75
2021/01/28 01:58:45;;;;;;;13.90;7.35;;;;;;;4.11;93.48;100094.14;122876;1109;65081;-73
2021/01/28 02:01:12;;;;;;;15.17;7.37;;;;;;;4.12;92.88;100090.53;122846;1109;64921;-74
2021/01/28 02:03:40;;;;;;;21.07;5.90;;;;;;;4.13;92.73;100091.38;122857;1112;65036;-76
2021/01/28 02:06:23;;;;;;;13.10;6.45;;;;;;;4.11;92.57;100098.58;122828;1109;64927;-74
2021/01/28 02:08:52;;;;;;;13.87;7.23;;;;;;;4.09;92.69;100085.59;122752;1109;64992;-73
2021/01/28 02:11:19;;;;;;;15.60;8.10;;;;;;;4.08;92.75;100081.33;123236;1112;65052;-75
2021/01/28 02:13:49;;;;;;;17.73;10.23;;;;;;;4.09;93.00;100086.41;122938;1112;64979;-73
2021/01/28 02:16:19;;;;;;;19.65;7.60;;;;;;;4.08;92.04;100079.53;122759;1112;64927;-73
2021/01/28 02:18:47;;;;;;;16.10;8.40;;;;;;;4.06;91.91;100078.03;123099;1111;64931;-75
2021/01/28 02:21:19;;;;;;;13.37;5.83;;;;;;;4.07;92.45;100071.79;122824;1112;64969;-73
2021/01/28 02:24:11;;;;;;;19.83;9.37;;;;;;;4.07;92.44;100062.11;122768;1109;65081;-76
2021/01/28 02:26:39;;;;;;;14.47;7.83;;;;;;;4.06;92.79;100060.47;122772;1109;65059;-76
2021/01/28 02:29:07;;;;;;;12.50;5.20;;;;;;;4.07;92.35;100050.80;122816;1112;65007;-74
2021/01/28 02:31:36;;;;;;;18.87;8.40;;;;;;;4.07;91.56;100045.55;122955;1112;65017;-77
2021/01/28 02:34:06;;;;;;;13.57;6.73;;;;;;;4.06;91.63;100044.73;123024;1109;64957;-76
2021/01/28 02:36:39;;;;;;;12.80;5.50;;;;;;;4.05;91.19;100043.06;122839;1111;65076;-74
2021/01/28 02:39:09;;;;;;;16.17;8.07;;;;;;;4.05;91.80;100040.44;122849;1109;65618;-78
2021/01/28 02:41:38;;;;;;;13.40;6.53;;;;;;;4.04;91.92;100030.92;122878;1111;63826;-75
2021/01/28 02:44:05;;;;;;;15.40;5.77;;;;;;;4.03;91.86;100045.00;122947;1109;64920;-76
2021/01/28 02:46:32;;;;;;;14.77;7.60;;;;;;;4.01;91.58;100041.70;122777;1112;64892;-76
2021/01/28 02:48:58;;;;;;;13.97;7.13;;;;;;;4.00;91.56;100034.00;122772;1112;65074;-75
2021/01/28 02:51:25;;;;;;;15.60;8.50;;;;;;;4.00;91.82;100034.82;122761;1109;64923;-77
2021/01/28 02:53:53;;;;;;;16.10;7.13;;;;;;;4.01;91.99;100033.83;122810;1109;65641;-75
2021/01/28 02:56:25;;;;;;;13.07;6.10;;;;;;;4.00;90.96;100040.07;122752;1109;64975;-76
2021/01/28 02:58:52;;;;;;;18.07;6.93;;;;;;;3.99;90.87;100038.40;122890;1112;64985;-77
2021/01/28 03:01:19;;;;;;;11.33;5.73;;;;;;;3.98;90.76;100033.33;122745;1109;65027;-77
2021/01/28 03:03:46;;;;;;;8.67;5.07;;;;;;;3.96;92.02;100030.02;122860;1112;64946;-76
2021/01/28 03:06:12;;;;;;;16.80;7.87;;;;;;;3.96;91.75;100033.46;122756;1112;64880;-74
2021/01/28 03:08:39;;;;;;;17.23;7.70;;;;;;;3.95;91.78;100031.80;122753;1109;65494;-75
2021/01/28 03:11:06;;;;;;;16.47;7.57;;;;;;;3.94;91.72;100035.41;122842;1111;65171;-75
2021/01/28 03:13:32;;;;;;;15.30;7.07;;;;;;;3.93;90.58;100025.91;122847;1109;65049;-75
2021/01/28 03:15:59;;;;;;;17.07;8.57;;;;;;;3.92;90.64;100024.23;122697;1112;65033;-75
2021/01/28 03:18:27;;;;;;;14.63;6.90;;;;;;;3.92;90.68;100021.61;122784;1109;65003;-76
2021/01/28 03:20:54;;;;;;;15.15;6.75;;;;;;;3.93;90.44;100027.67;122889;1111;64991;-75
2021/01/28 03:23:20;;;;;;;15.95;6.75;;;;;;;3.92;90.24;100021.61;122765;1109;64985;-75
2021/01/28 03:25:48;;;;;;;17.23;7.73;;;;;;;3.92;90.76;100020.80;122910;1109;64815;-75
2021/01/28 03:28:14;;;;;;;13.10;6.80;;;;;;;3.92;90.57;100021.61;122739;1112;64953;-75
2021/01/28 03:30:45;;;;;;;15.43;7.23;;;;;;;3.92;90.36;100024.23;122709;1109;64812;-77
2021/01/28 03:33:15;;;;;;;10.55;6.55;;;;;;;3.91;90.72;100025.22;122905;1109;65366;-77
2021/01/28 03:35:42;;;;;;;12.37;7.10;;;;;;;3.91;91.07;100019.13;122734;1109;64952;-76
2021/01/28 03:38:11;;;;;;;17.17;8.07;;;;;;;3.89;90.64;100006.17;122851;1112;65377;-75
2021/01/28 03:40:41;;;;;;;17.17;7.90;;;;;;;3.89;91.48;100011.42;122743;1112;65404;-77
2021/01/28 03:43:08;;;;;;;17.43;8.10;;;;;;;3.86;91.13;100007.27;122712;1112;64816;-76
2021/01/28 03:45:34;;;;;;;14.68;7.75;;;;;;;3.86;91.65;100003.83;122787;1112;65447;-75
2021/01/28 03:48:02;;;;;;;17.00;8.17;;;;;;;3.83;91.12;100006.77;122791;1109;66147;-78
2021/01/28 03:50:34;;;;;;;16.10;6.50;;;;;;;3.84;90.61;100003.16;122775;1109;64905;-77
2021/01/28 03:53:01;;;;;;;12.20;6.30;;;;;;;3.81;91.54;100003.47;122893;1109;64943;-77
2021/01/28 03:55:28;;;;;;;17.03;7.63;;;;;;;3.82;91.49;100005.09;122755;1112;64956;-75
2021/01/28 03:57:55;;;;;;;18.33;8.57;;;;;;;3.82;90.98;100020.84;122762;1112;64984;-75
2021/01/28 04:00:26;;;;;;;12.83;6.63;;;;;;;3.80;91.40;100018.36;122711;1112;65001;-76
2021/01/28 04:02:52;;;;;;;16.90;7.40;;;;;;;3.77;91.00;100021.29;122754;1112;65122;-75
2021/01/28 04:05:19;;;;;;;17.77;7.03;;;;;;;3.78;90.69;100014.23;122806;1112;64934;-74
2021/01/28 04:07:46;;;;;;;15.85;8.35;;;;;;;3.77;91.55;100018.66;122743;1109;65434;-76
2021/01/28 04:10:18;;;;;;;14.83;6.33;;;;;;;3.77;91.10;100028.34;122747;1112;64958;-76
2021/01/28 04:12:44;;;;;;;12.03;6.27;;;;;;;3.77;91.07;100023.09;122795;1112;64899;-75
2021/01/28 04:15:12;;;;;;;17.30;8.27;;;;;;;3.76;90.71;100022.28;122717;1112;64937;-75
2021/01/28 04:17:38;;;;;;;9.65;5.35;;;;;;;3.75;91.06;100025.86;123202;1112;65037;-77
2021/01/28 04:20:07;;;;;;;9.03;5.20;;;;;;;3.74;89.62;100018.12;122804;1109;64917;-76
2021/01/28 04:22:33;;;;;;;15.27;7.03;;;;;;;3.74;89.89;100012.88;122863;1110;65001;-76
2021/01/28 04:25:00;;;;;;;15.50;6.90;;;;;;;3.73;89.76;100000.75;122869;1109;64873;-74
2021/01/28 04:27:27;;;;;;;15.03;7.97;;;;;;;3.71;90.38;100007.94;122750;1112;65077;-77
2021/01/28 04:29:54;;;;;;;11.43;4.90;;;;;;;3.67;89.05;99997.73;122924;1111;64946;-78
2021/01/28 04:32:20;;;;;;;12.03;6.27;;;;;;;3.67;89.33;99997.73;122743;1109;64949;-76
2021/01/28 04:34:47;;;;;;;10.80;5.37;;;;;;;3.64;89.97;99991.97;122764;1112;64922;-77
2021/01/28 04:37:14;;;;;;;9.87;5.40;;;;;;;3.62;89.27;99996.54;122730;1112;66157;-75
2021/01/28 04:39:41;;;;;;;12.23;6.37;;;;;;;3.59;90.26;99997.66;122843;1109;64950;-74
2021/01/28 04:42:18;;;;;;;14.17;7.13;;;;;;;3.59;89.87;99994.20;122744;1109;65072;-75
2021/01/28 04:44:45;;;;;;;13.00;5.95;;;;;;;3.57;89.01;99996.98;122814;1112;64992;-75
2021/01/28 04:47:15;;;;;;;12.30;5.67;;;;;;;3.56;88.86;99992.70;122723;1112;65481;-76
2021/01/28 04:49:53;;;;;;;11.50;5.80;;;;;;;3.55;88.97;99987.59;123027;1109;65671;-76
2021/01/28 04:52:21;;;;;;;13.83;7.00;;;;;;;3.54;88.67;99975.47;123490;1110;65000;-76
2021/01/28 04:54:49;;;;;;;13.47;6.13;;;;;;;3.52;89.71;99972.98;122840;1111;65141;-76
2021/01/28 04:57:15;;;;;;;9.77;4.77;;;;;;;3.48;89.72;99976.87;122882;1109;65413;-76
2021/01/28 04:59:44;;;;;;;11.80;6.00;;;;;;;3.48;89.13;99976.87;122730;1112;64978;-75
2021/01/28 05:02:16;;;;;;;11.23;5.60;;;;;;;3.47;88.93;99976.05;122989;1112;65319;-77
2021/01/28 05:05:05;;;;;;;12.70;5.63;;;;;;;3.48;89.64;99969.00;122818;1111;65064;-75
2021/01/28 05:07:35;;;;;;;11.77;6.50;;;;;;;3.46;88.56;99963.08;122674;1109;63684;-76
2021/01/28 05:10:03;;;;;;;10.33;5.17;;;;;;;3.44;88.62;99962.40;122783;1112;65020;-75
2021/01/28 05:12:30;;;;;;;9.90;5.90;;;;;;;3.41;88.52;99968.77;122813;1112;64923;-75
2021/01/28 05:15:27;;;;;;;10.90;5.73;;;;;;;3.39;88.87;99964.64;122716;1109;64924;-75
2021/01/28 05:18:02;;;;;;;15.60;7.55;;;;;;;3.38;89.45;99968.22;122720;1112;65039;-75
2021/01/28 05:20:30;;;;;;;14.50;7.57;;;;;;;3.38;89.90;99965.60;122751;1112;64939;-77
2021/01/28 05:23:03;;;;;;;11.73;6.00;;;;;;;3.37;90.05;99959.54;122951;1109;65474;-77
2021/01/28 05:25:35;;;;;;;12.80;7.60;;;;;;;3.37;88.95;99961.34;122825;1112;64981;-75
2021/01/28 05:28:21;;;;;;;8.27;4.07;;;;;;;3.36;88.68;99946.57;123047;1109;64876;-76
2021/01/28 05:30:47;;;;;;;11.13;5.23;;;;;;;3.35;89.34;99943.13;122703;1109;65480;-75
2021/01/28 05:33:27;;;;;;;10.25;4.65;;;;;;;3.34;89.20;99941.50;122735;1111;64984;-75
2021/01/28 05:36:24;;;;;;;21.40;6.43;;;;;;;3.34;89.55;99930.19;122833;1110;65003;-74
2021/01/28 05:38:53;;;;;;;16.83;6.60;;;;;;;3.34;88.69;99933.63;122805;1109;64940;-78
2021/01/28 05:41:42;;;;;;;9.77;5.10;;;;;;;3.32;89.51;99930.33;122894;1109;64930;-75
2021/01/28 05:44:30;;;;;;;15.60;7.67;;;;;;;3.32;88.76;99929.52;122821;1109;64946;-75
2021/01/28 05:47:09;;;;;;;9.10;5.70;;;;;;;3.30;89.20;99927.03;122915;1112;65011;-74
2021/01/28 05:49:42;;;;;;;8.13;4.93;;;;;;;3.28;88.16;99939.45;122740;1109;64988;-75
2021/01/28 05:52:30;;;;;;;12.60;4.90;;;;;;;3.26;89.29;99938.78;122885;1111;65007;-75
2021/01/28 05:55:04;;;;;;;11.83;7.10;;;;;;;3.23;89.01;99937.28;122741;1112;65042;-74
2021/01/28 05:57:44;;;;;;;14.98;7.10;;;;;;;3.20;88.01;99937.55;122735;1112;64979;-76
2021/01/28 06:00:29;;;;;;;21.20;7.00;;;;;;;3.17;88.62;99937.86;122805;1109;64950;-74
2021/01/28 06:03:20;;;;;;;9.53;5.07;;;;;;;3.15;88.43;99937.18;122750;1109;65280;-76
2021/01/28 06:05:56;;;;;;;15.50;5.70;;;;;;;3.14;88.48;99942.56;122700;1112;65004;-76
2021/01/28 06:08:26;;;;;;;11.63;5.30;;;;;;;3.12;88.60;99934.83;122725;1109;65131;-77
2021/01/28 06:11:19;;;;;;;8.95;4.15;;;;;;;3.09;88.30;99929.08;123509;1109;64821;-76
2021/01/28 06:14:08;;;;;;;11.50;5.85;;;;;;;3.06;89.37;99931.02;123656;1109;64809;-75
2021/01/28 06:17:05;;;;;;;11.30;5.73;;;;;;;3.05;88.86;99925.91;123371;1109;65498;-76
2021/01/28 06:19:34;;;;;;;;;;;;;;;3.02;88.31;99929.66;123182;1110;64943;-75
2021/01/28 06:22:18;;;;;;;20.17;6.00;;;;;;;3.01;88.82;99921.93;122692;1112;64946;-76
2021/01/28 06:25:02;;;;;;;11.73;5.53;;;;;;;2.97;88.33;99905.66;122657;1110;64998;-76
2021/01/28 06:27:50;;;;;;;16.25;6.37;;;;;;;2.98;88.87;99893.41;122884;1112;65122;-75
2021/01/28 06:30:25;;;;;;;11.33;4.57;;;;;;;2.95;88.16;99891.06;122700;1112;65473;-75
2021/01/28 06:33:26;;;;;;;11.83;6.17;;;;;;;2.93;89.20;99874.67;122855;1112;64924;-77
2021/01/28 06:36:23;;;;;;;10.33;6.23;;;;;;;2.89;88.99;99887.26;122795;1112;64988;-78
2021/01/28 06:39:14;;;;;;;17.10;6.90;;;;;;;2.86;88.47;99879.67;122766;1109;65483;-75
2021/01/28 06:41:57;;;;;;;12.80;6.80;;;;;;;2.85;89.13;99857.90;122786;1111;65404;-77
2021/01/28 06:44:32;;;;;;;14.17;5.90;;;;;;;2.85;88.66;99864.94;122755;1112;64891;-77
2021/01/28 06:47:22;;;;;;;15.93;6.70;;;;;;;2.83;89.08;99867.70;122871;1112;65096;-77
2021/01/28 06:50:04;;;;;;;9.70;5.80;;;;;;;2.81;88.37;99872.25;122717;1112;65198;-74
2021/01/28 06:53:00;;;;;;;8.57;5.30;;;;;;;2.82;89.40;99879.13;122797;1112;64953;-75
2021/01/28 06:55:46;;;;;;;;;;;;;;;2.83;89.32;99872.11;122822;1110;65477;-76
2021/01/28 06:58:28;;;;;;;;;;;;;;;2.81;88.94;99861.77;122784;1109;64950;-75
2021/01/28 07:01:19;;;;;;;10.83;5.10;;;;;;;2.82;89.45;99852.94;122852;1111;65065;-76
2021/01/28 07:04:24;;;;;;;14.43;7.20;;;;;;;2.84;89.16;99860.66;122769;1109;66106;-76
2021/01/28 07:07:13;;;;;;;12.97;7.30;;;;;;;2.86;88.24;99870.01;122752;1112;64990;-76
2021/01/28 07:09:58;;;;;;;14.97;7.17;;;;;;;2.90;88.12;99856.64;123312;1109;64946;-75
2021/01/28 07:12:36;;;;;;;11.03;6.23;;;;;;;2.92;88.24;99855.52;122701;1112;64946;-74
2021/01/28 07:15:05;;;;;;;10.07;5.77;;;;;;;2.98;88.48;99856.73;122852;1112;64812;-74
2021/01/28 07:17:47;;;;;;;10.40;5.33;;;;;;;3.00;88.09;99862.66;123052;1109;64927;-76
2021/01/28 07:20:34;;;;;;;11.10;6.15;;;;;;;3.00;88.53;99862.66;122973;1112;62780;-75
2021/01/28 07:23:23;;;;;;;13.65;6.10;;;;;;;3.01;88.99;99870.34;123005;1109;64911;-75
2021/01/28 07:25:52;;;;;;;13.80;7.00;;;;;;;3.02;87.60;99863.33;122786;1109;64962;-77
2021/01/28 07:28:18;;;;;;;14.43;7.13;;;;;;;3.03;87.80;99863.16;122996;1109;64921;-75
2021/01/28 07:31:12;;;;;;;11.70;6.85;;;;;;;3.03;87.74;99871.03;122740;1109;65004;-77
2021/01/28 07:34:05;;;;;;;14.70;7.13;;;;;;;3.04;87.44;99864.02;122750;1112;64920;-76
2021/01/28 07:36:36;;;;;;;8.03;3.90;;;;;;;3.01;87.33;99864.29;122812;1112;65383;-76
2021/01/28 07:39:05;;;;;;;9.63;6.30;;;;;;;3.01;88.47;99851.19;122751;1112;64924;-75
2021/01/28 07:42:25;;;;;;;7.20;3.80;;;;;;;2.99;87.50;99846.09;122812;1112;64421;-78
2021/01/28 07:44:54;;;;;;;5.80;2.73;;;;;;;2.98;88.11;99848.87;122761;1112;64946;-77
2021/01/28 07:47:29;;;;;;;6.03;3.60;;;;;;;2.94;88.20;99853.58;122759;1109;65394;-76
2021/01/28 07:50:06;;;;;;;10.77;5.80;;;;;;;2.92;88.08;99854.70;122767;1109;64928;-75
2021/01/28 07:52:39;;;;;;;14.97;7.93;;;;;;;2.91;88.44;99851.27;122793;1112;65023;-76
2021/01/28 07:55:35;;;;;;;14.67;8.23;;;;;;;2.95;87.76;99849.97;122842;1112;65019;-75
2021/01/28 07:58:04;;;;;;;12.97;7.23;;;;;;;3.01;88.33;99838.09;122699;1109;64979;-75
2021/01/28 08:00:39;;;;;;;12.57;6.00;;;;;;;3.05;88.63;99844.69;122779;1112;64959;-74
2021/01/28 08:03:19;;;;;;;10.80;7.20;;;;;;;3.09;88.88;99830.32;122774;1111;64940;-76
2021/01/28 08:05:52;;;;;;;10.17;6.00;;;;;;;3.13;87.71;99823.00;122844;1112;65026;-75
2021/01/28 08:08:20;;;;;;;10.97;5.63;;;;;;;3.17;88.89;99822.55;123066;1111;64934;-74
2021/01/28 08:10:49;;;;;;;10.95;6.15;;;;;;;3.18;88.64;99824.18;122798;1112;64975;-76
2021/01/28 08:13:30;;;;;;;10.60;5.57;;;;;;;3.18;88.02;99821.56;122997;1108;65005;-78
2021/01/28 08:16:06;;;;;;;11.70;7.17;;;;;;;3.20;88.54;99817.00;122959;1112;64867;-78
2021/01/28 08:18:36;;;;;;;10.50;6.00;;;;;;;3.26;88.03;99816.41;124149;1109;64974;-79
2021/01/28 08:21:20;;;;;;;13.43;6.10;;;;;;;3.31;88.46;99828.23;123088;1112;64901;-76
2021/01/28 08:23:49;;;;;;;10.10;5.93;;;;;;;3.30;87.17;99827.42;122946;1112;64953;-75
2021/01/28 08:26:25;;;;;;;8.47;4.67;;;;;;;3.30;87.47;99824.80;123230;1112;65109;-79
2021/01/28 08:29:06;;;;;;;8.93;5.60;;;;;;;3.29;86.76;99819.70;123099;1112;65087;-77
2021/01/28 08:31:41;;;;;;;10.25;5.85;;;;;;;3.31;88.33;99822.99;122981;1109;64998;-77
2021/01/28 08:34:15;;;;;;;9.20;3.85;;;;;;;3.30;86.67;99809.08;123059;1109;64930;-77
2021/01/28 08:36:52;;;;;;;11.25;6.08;;;;;;;3.30;86.65;99813.50;123224;1109;65494;-80
2021/01/28 08:39:25;;;;;;;11.07;4.80;;;;;;;3.30;86.57;99798.59;123489;1112;65081;-78
2021/01/28 08:41:59;;;;;;;9.20;4.70;;;;;;;3.29;86.09;99804.79;123274;1109;64917;-77
2021/01/28 08:44:26;;;;;;;8.15;4.30;;;;;;;3.31;86.46;99804.64;123253;1112;64815;-77
2021/01/28 08:47:09;;;;;;;10.30;3.30;;;;;;;3.32;87.26;99809.75;123164;1112;65010;-79
2021/01/28 08:49:37;;;;;;;6.43;3.17;;;;;;;3.30;86.80;99808.26;123096;1109;64883;-78
2021/01/28 08:52:09;;;;;;;5.53;3.00;;;;;;;3.28;85.90;99794.47;123251;1109;64979;-79
2021/01/28 08:54:40;;;;;;;7.37;3.27;;;;;;;3.25;86.89;99796.42;123292;1109;66143;-77
2021/01/28 08:57:11;;;;;;;10.10;4.40;;;;;;;3.29;87.20;99796.11;123731;1112;64856;-77
2021/01/28 08:59:46;;;;;;;8.87;4.90;;;;;;;3.33;86.95;99794.84;123522;1112;64870;-78
2021/01/28 09:02:23;;;;;;;13.13;5.40;;;;;;;3.36;85.82;99792.75;123290;1112;64901;-78
2021/01/28 09:05:02;;;;;;;6.83;4.20;;;;;;;3.39;85.71;99783.75;123194;1112;64997;-80
2021/01/28 09:07:51;;;;;;;8.73;4.73;;;;;;;3.43;86.56;99774.61;123740;1112;64985;-79
2021/01/28 09:10:26;;;;;;;5.77;2.70;;;;;;;3.43;86.50;99769.38;123226;1109;64873;-78
2021/01/28 09:13:09;;;;;;;8.13;4.03;;;;;;;3.43;86.07;99769.38;123278;1112;64950;-78
2021/01/28 09:15:35;;;;;;;8.97;4.10;;;;;;;3.40;85.91;99765.26;123233;1109;66247;-77
2021/01/28 09:18:08;;;;;;;4.87;2.87;;;;;;;3.43;86.10;99753.64;123123;1112;65071;-78
2021/01/28 09:20:37;;;;;;;11.73;4.27;;;;;;;3.44;85.88;99750.88;123625;1112;65056;-77
2021/01/28 09:23:13;;;;;;;8.80;4.33;;;;;;;3.46;86.43;99750.70;123623;1112;64889;-77
2021/01/28 09:25:42;;;;;;;7.57;3.87;;;;;;;3.49;85.62;99741.73;123465;1112;64040;-78
2021/01/28 09:28:12;;;;;;;5.37;2.97;;;;;;;3.47;85.40;99736.63;123906;1111;65052;-80
2021/01/28 09:30:43;;;;;;;7.87;3.90;;;;;;;3.49;84.99;99742.55;123844;1109;65103;-79
2021/01/28 09:33:36;;;;;;;4.87;2.93;;;;;;;3.51;85.31;99740.59;123400;1112;64342;-77
2021/01/28 09:36:19;;;;;;;5.93;4.03;;;;;;;3.50;84.83;99733.69;123480;1110;64883;-76
2021/01/28 09:39:12;;;;;;;8.00;3.70;;;;;;;3.52;84.61;99731.73;123443;1110;64994;-78
2021/01/28 09:41:45;;;;;;;7.25;3.60;;;;;;;3.54;85.37;99718.48;123557;1112;65484;-77
2021/01/28 09:44:35;;;;;;;7.73;3.80;;;;;;;3.54;85.52;99714.05;123464;1112;65007;-80
2021/01/28 09:47:17;;;;;;;6.57;3.83;;;;;;;3.51;84.46;99714.38;123261;1109;64912;-77
2021/01/28 09:49:50;;;;;;;7.80;3.85;;;;;;;3.53;85.54;99712.42;124006;1109;64898;-77
2021/01/28 09:52:24;;;;;;;9.00;3.73;;;;;;;3.52;84.66;99702.89;123212;1107;64969;-77
2021/01/28 09:54:56;;;;;;;5.90;3.67;;;;;;;3.56;85.60;99706.86;123220;1109;63684;-77
2021/01/28 09:57:24;;;;;;;10.87;4.50;;;;;;;3.57;85.79;99702.43;123733;1112;65087;-77
2021/01/28 09:59:50;;;;;;;8.53;3.77;;;;;;;3.59;85.56;99698.70;123400;1112;65037;-78
2021/01/28 10:02:30;;;;;;;11.60;4.30;;;;;;;3.60;84.19;99708.20;123216;1112;64926;-78
2021/01/28 10:04:56;;;;;;;7.90;4.80;;;;;;;3.61;84.20;99709.02;123018;1112;64925;-76
2021/01/28 10:07:22;;;;;;;6.47;3.80;;;;;;;3.61;85.08;99704.61;122978;1109;64949;-78
2021/01/28 10:09:49;;;;;;;5.93;3.63;;;;;;;3.61;84.10;99706.39;123250;1112;66199;-77
2021/01/28 10:12:17;;;;;;;8.40;4.33;;;;;;;3.59;84.44;99709.19;122941;1112;65697;-77
2021/01/28 10:14:44;;;;;;;8.75;4.30;;;;;;;3.57;84.42;99703.28;123131;1109;64936;-76
2021/01/28 10:17:13;;;;;;;8.57;4.23;;;;;;;3.56;83.79;99701.61;122984;1109;65003;-78
2021/01/28 10:19:42;;;;;;;5.73;3.63;;;;;;;3.59;83.79;99710.97;126121;1109;65637;-80
2021/01/28 10:22:12;;;;;;;6.47;3.27;;;;;;;3.60;83.24;99707.38;123514;1112;64994;-77
2021/01/28 10:24:38;;;;;;;9.80;4.00;;;;;;;3.58;83.89;99698.84;122932;1109;65004;-77
2021/01/28 10:27:05;;;;;;;8.70;4.27;;;;;;;3.57;83.05;99698.03;123527;1109;64982;-80
2021/01/28 10:29:31;;;;;;;5.50;3.60;;;;;;;3.56;83.04;99695.55;122980;1112;65001;-78
2021/01/28 10:31:57;;;;;;;6.20;3.67;;;;;;;3.55;83.19;99693.89;122915;1109;64926;-78
2021/01/28 10:34:24;;;;;;;4.63;2.73;;;;;;;3.55;83.50;99689.49;123121;1112;65489;-76
2021/01/28 10:36:51;;;;;;;7.92;3.25;;;;;;;3.54;83.30;99682.59;122882;1112;64917;-78
2021/01/28 10:39:17;;;;;;;7.10;3.45;;;;;;;3.53;83.07;99686.20;122907;1109;65084;-76
2021/01/28 10:41:48;;;;;;;8.33;3.97;;;;;;;3.53;82.91;99690.60;122905;1109;64927;-78
2021/01/28 10:44:15;;;;;;;10.07;4.83;;;;;;;3.54;83.69;99690.45;123115;1112;64835;-78
2021/01/28 10:46:42;;;;;;;7.80;4.50;;;;;;;3.53;83.52;99683.58;122865;1110;65055;-77
2021/01/28 10:49:10;;;;;;;8.97;4.37;;;;;;;3.53;82.12;99680.95;122845;1112;64963;-78
2021/01/28 10:51:37;;;;;;;7.40;3.30;;;;;;;3.53;83.36;99670.47;123145;1109;64985;-78
2021/01/28 10:54:03;;;;;;;5.77;3.53;;;;;;;3.51;82.91;99675.05;123283;1112;65007;-77
2021/01/28 10:56:30;;;;;;;6.03;3.10;;;;;;;3.49;82.95;99671.75;123325;1112;64912;-77
2021/01/28 10:58:56;;;;;;;5.23;2.47;;;;;;;3.49;82.83;99670.94;122985;1112;65405;-78
2021/01/28 11:01:23;;;;;;;9.03;4.77;;;;;;;3.51;83.48;99666.33;123164;1109;64885;-80
2021/01/28 11:03:49;;;;;;;5.92;3.95;;;;;;;3.52;82.96;99667.99;123473;1112;64984;-76
2021/01/28 11:06:16;;;;;;;7.53;4.45;;;;;;;3.51;83.22;99661.94;122998;1112;64991;-77
2021/01/28 11:08:42;;;;;;;10.05;4.70;;;;;;;3.54;83.81;99661.61;122943;1109;65465;-80
2021/01/28 11:11:09;;;;;;;6.60;4.40;;;;;;;3.58;82.67;99662.13;123203;1112;65055;-78
2021/01/28 11:13:35;;;;;;;7.73;3.93;;;;;;;3.59;84.11;99658.52;122912;1109;65438;-78
2021/01/28 11:16:01;;;;;;;5.23;3.27;;;;;;;3.61;83.90;99652.16;122937;1109;65576;-76
2021/01/28 11:18:28;;;;;;;10.13;4.75;;;;;;;3.63;82.68;99639.72;123004;1112;62342;-79
2021/01/28 11:20:54;;;;;;;6.27;3.10;;;;;;;3.64;82.58;99641.35;122915;1109;64930;-76
2021/01/28 11:23:20;;;;;;;9.47;5.10;;;;;;;3.63;83.44;99631.85;123089;1109;64943;-78
2021/01/28 11:25:46;;;;;;;9.40;4.80;;;;;;;3.64;82.82;99630.05;122872;1109;65081;-76
2021/01/28 11:28:12;;;;;;;7.70;4.70;;;;;;;3.63;82.98;99633.63;123334;1109;64829;-78
2021/01/28 11:30:39;;;;;;;9.95;5.72;;;;;;;3.60;82.94;99624.28;122991;1112;65045;-77
2021/01/28 11:33:07;;;;;;;6.73;4.53;;;;;;;3.54;82.77;99619.66;123091;1112;64985;-77
2021/01/28 11:35:36;;;;;;;8.97;4.97;;;;;;;3.54;83.80;99614.41;123393;1112;64969;-81
2021/01/28 11:38:05;;;;;;;8.63;4.57;;;;;;;3.54;83.89;99603.92;123059;1112;64943;-81
2021/01/28 11:40:33;;;;;;;11.13;6.10;;;;;;;3.55;83.80;99602.97;123069;1111;64956;-80
2021/01/28 11:42:59;;;;;;;11.07;5.57;;;;;;;3.59;83.55;99595.58;123187;1109;64929;-76
2021/01/28 11:45:29;;;;;;;10.10;6.37;;;;;;;3.61;82.94;99599.72;122926;1112;64956;-77
2021/01/28 11:47:56;;;;;;;11.03;6.20;;;;;;;3.64;83.84;99598.58;122994;1112;65205;-77
2021/01/28 11:50:23;;;;;;;10.90;5.93;;;;;;;3.64;84.01;99580.22;123030;1112;64943;-77
2021/01/28 11:52:50;;;;;;;7.57;4.13;;;;;;;3.66;83.05;99578.27;123466;1109;64937;-78